KCKV/CKV METAR and TAF weather

Enter ICAO airport designator
Station Type Date Time Source
KCKV METAR 2020/02/21 01:52 UTC NOAA

KCKV 210152Z AUTO 35014KT 10SM CLR 00/M08 A3055 RMK AO2 SLP351 T00001078


Station Type Date Time Source
KCKV Decoded METAR 2020/02/21 01:52 UTC NOAA

CLARKSVILLE OUTLAW FIELD, TN, United States (KCKV) 36-37N 87-25W 165M
Feb 20, 2020 - 08:52 PM EST / 2020.02.21 0152 UTC
Wind: from the N (350 degrees) at 16 MPH (14 KT):0
Visibility: 10 mile(s):0
Sky conditions: clear
Temperature: 32.0 F (0.0 C)
Windchill: 21 F (-6 C):1
Dew Point: 18.0 F (-7.8 C)
Relative Humidity: 55%
Pressure (altimeter): 30.55 in. Hg (1034 hPa)
ob: KCKV 210152Z AUTO 35014KT 10SM CLR 00/M08 A3055 RMK AO2 SLP351 T00001078
cycle: 2

Station Type Date Time Source
KCKV TAF 2020/02/20 17:24 UTC NOAA

TAF
AMD KCKV 201722Z 2017/2118 02012G18KT P6SM BKN090
FM202000 01013G22KT P6SM SCT200
FM202300 36011G17KT P6SM SCT250
FM210400 36009G15KT P6SM FEW150
FM210600 01008KT P6SM SKC

Example: see airport list